sensor_id;sensor_type;location;lat;lon;timestamp;P1;durP1;ratioP1;P2;durP2;ratioP2
1949;SDS011;975;48.760;9.152;2023-07-22T00:00:29;1.95;;;1.20;;
1949;SDS011;975;48.760;9.152;2023-07-22T00:03:17;3.30;;;1.10;;
1949;SDS011;975;48.760;9.152;2023-07-22T00:06:05;1.70;;;1.10;;
1949;SDS011;975;48.760;9.152;2023-07-22T00:08:53;2.13;;;1.10;;
1949;SDS011;975;48.760;9.152;2023-07-22T00:11:41;4.88;;;2.15;;
1949;SDS011;975;48.760;9.152;2023-07-22T00:14:31;2.97;;;1.80;;
1949;SDS011;975;48.760;9.152;2023-07-22T00:17:19;2.45;;;1.20;;
1949;SDS011;975;48.760;9.152;2023-07-22T00:20:08;4.30;;;1.23;;
1949;SDS011;975;48.760;9.152;2023-07-22T00:22:57;1.55;;;1.20;;
1949;SDS011;975;48.760;9.152;2023-07-22T00:25:44;4.68;;;1.52;;
1949;SDS011;975;48.760;9.152;2023-07-22T00:28:32;1.83;;;1.33;;
1949;SDS011;975;48.760;9.152;2023-07-22T00:31:22;5.32;;;1.55;;
1949;SDS011;975;48.760;9.152;2023-07-22T00:34:10;3.65;;;1.90;;
1949;SDS011;975;48.760;9.152;2023-07-22T00:36:57;2.25;;;1.30;;
1949;SDS011;975;48.760;9.152;2023-07-22T00:39:45;5.55;;;1.83;;
1949;SDS011;975;48.760;9.152;2023-07-22T00:42:33;3.05;;;1.40;;
1949;SDS011;975;48.760;9.152;2023-07-22T00:45:21;2.20;;;1.50;;
1949;SDS011;975;48.760;9.152;2023-07-22T00:48:10;2.25;;;1.40;;
1949;SDS011;975;48.760;9.152;2023-07-22T00:50:58;2.55;;;1.45;;
1949;SDS011;975;48.760;9.152;2023-07-22T00:53:46;2.38;;;1.45;;
1949;SDS011;975;48.760;9.152;2023-07-22T00:56:35;3.70;;;1.10;;
1949;SDS011;975;48.760;9.152;2023-07-22T00:59:32;2.45;;;1.50;;
1949;SDS011;975;48.760;9.152;2023-07-22T01:02:23;3.88;;;1.30;;
1949;SDS011;975;48.760;9.152;2023-07-22T01:05:12;2.25;;;1.38;;
1949;SDS011;975;48.760;9.152;2023-07-22T01:08:00;2.40;;;1.65;;
1949;SDS011;975;48.760;9.152;2023-07-22T01:10:49;1.77;;;1.30;;
1949;SDS011;975;48.760;9.152;2023-07-22T01:13:40;2.50;;;1.25;;
1949;SDS011;975;48.760;9.152;2023-07-22T01:16:29;3.25;;;1.60;;
1949;SDS011;975;48.760;9.152;2023-07-22T01:19:16;2.17;;;1.33;;
1949;SDS011;975;48.760;9.152;2023-07-22T01:22:07;1.88;;;1.30;;
1949;SDS011;975;48.760;9.152;2023-07-22T01:24:56;3.80;;;1.55;;
1949;SDS011;975;48.760;9.152;2023-07-22T01:27:44;1.80;;;1.30;;
1949;SDS011;975;48.760;9.152;2023-07-22T01:30:32;3.95;;;1.55;;
1949;SDS011;975;48.760;9.152;2023-07-22T01:33:22;2.60;;;1.58;;
1949;SDS011;975;48.760;9.152;2023-07-22T01:36:10;2.15;;;1.70;;
1949;SDS011;975;48.760;9.152;2023-07-22T01:38:58;1.67;;;1.20;;
1949;SDS011;975;48.760;9.152;2023-07-22T01:41:48;3.08;;;1.48;;
1949;SDS011;975;48.760;9.152;2023-07-22T01:44:36;2.75;;;1.48;;
1949;SDS011;975;48.760;9.152;2023-07-22T01:47:24;2.05;;;1.35;;
1949;SDS011;975;48.760;9.152;2023-07-22T01:50:12;2.65;;;1.23;;
1949;SDS011;975;48.760;9.152;2023-07-22T01:53:00;1.65;;;1.27;;
1949;SDS011;975;48.760;9.152;2023-07-22T01:55:51;2.15;;;1.27;;
1949;SDS011;975;48.760;9.152;2023-07-22T01:58:41;3.45;;;1.60;;
1949;SDS011;975;48.760;9.152;2023-07-22T02:01:29;3.83;;;1.60;;
1949;SDS011;975;48.760;9.152;2023-07-22T02:04:17;1.75;;;1.30;;
1949;SDS011;975;48.760;9.152;2023-07-22T02:07:05;5.80;;;1.63;;
1949;SDS011;975;48.760;9.152;2023-07-22T02:09:53;3.78;;;1.40;;
1949;SDS011;975;48.760;9.152;2023-07-22T02:12:41;1.98;;;1.17;;
1949;SDS011;975;48.760;9.152;2023-07-22T02:15:30;1.67;;;1.40;;
1949;SDS011;975;48.760;9.152;2023-07-22T02:18:18;3.13;;;1.30;;
1949;SDS011;975;48.760;9.152;2023-07-22T02:21:08;1.85;;;1.40;;
1949;SDS011;975;48.760;9.152;2023-07-22T02:23:56;2.78;;;1.60;;
1949;SDS011;975;48.760;9.152;2023-07-22T02:26:44;2.20;;;1.75;;
1949;SDS011;975;48.760;9.152;2023-07-22T02:29:32;1.88;;;1.13;;
1949;SDS011;975;48.760;9.152;2023-07-22T02:32:21;2.40;;;1.77;;
1949;SDS011;975;48.760;9.152;2023-07-22T02:35:09;5.65;;;1.60;;
1949;SDS011;975;48.760;9.152;2023-07-22T02:37:57;3.83;;;1.70;;
1949;SDS011;975;48.760;9.152;2023-07-22T02:40:44;2.85;;;1.65;;
1949;SDS011;975;48.760;9.152;2023-07-22T02:43:32;1.80;;;1.15;;
1949;SDS011;975;48.760;9.152;2023-07-22T02:46:20;2.45;;;1.35;;
1949;SDS011;975;48.760;9.152;2023-07-22T02:49:09;2.38;;;1.38;;
1949;SDS011;975;48.760;9.152;2023-07-22T02:51:57;3.22;;;1.88;;
1949;SDS011;975;48.760;9.152;2023-07-22T02:55:03;4.50;;;1.50;;
1949;SDS011;975;48.760;9.152;2023-07-22T02:57:51;3.63;;;1.40;;
1949;SDS011;975;48.760;9.152;2023-07-22T03:00:39;3.53;;;1.45;;
1949;SDS011;975;48.760;9.152;2023-07-22T03:03:28;3.15;;;1.60;;
1949;SDS011;975;48.760;9.152;2023-07-22T03:06:20;2.83;;;1.67;;
1949;SDS011;975;48.760;9.152;2023-07-22T03:09:08;1.63;;;1.15;;
1949;SDS011;975;48.760;9.152;2023-07-22T03:11:57;3.50;;;1.60;;
1949;SDS011;975;48.760;9.152;2023-07-22T03:14:48;2.70;;;1.67;;
1949;SDS011;975;48.760;9.152;2023-07-22T03:17:36;2.55;;;1.42;;
1949;SDS011;975;48.760;9.152;2023-07-22T03:20:24;3.58;;;1.90;;
1949;SDS011;975;48.760;9.152;2023-07-22T03:23:14;3.10;;;1.70;;
1949;SDS011;975;48.760;9.152;2023-07-22T03:26:01;2.50;;;1.40;;
1949;SDS011;975;48.760;9.152;2023-07-22T03:28:49;2.53;;;1.50;;
1949;SDS011;975;48.760;9.152;2023-07-22T03:31:37;2.55;;;1.20;;
1949;SDS011;975;48.760;9.152;2023-07-22T03:34:26;4.18;;;1.55;;
1949;SDS011;975;48.760;9.152;2023-07-22T03:37:17;2.90;;;1.65;;
1949;SDS011;975;48.760;9.152;2023-07-22T03:40:08;1.50;;;1.40;;
1949;SDS011;975;48.760;9.152;2023-07-22T03:42:59;1.65;;;1.23;;
1949;SDS011;975;48.760;9.152;2023-07-22T03:45:47;2.00;;;1.20;;
1949;SDS011;975;48.760;9.152;2023-07-22T03:48:35;4.82;;;1.40;;
1949;SDS011;975;48.760;9.152;2023-07-22T03:51:23;1.80;;;1.35;;
1949;SDS011;975;48.760;9.152;2023-07-22T03:54:11;2.20;;;1.50;;
1949;SDS011;975;48.760;9.152;2023-07-22T03:57:00;1.92;;;1.42;;
1949;SDS011;975;48.760;9.152;2023-07-22T03:59:48;2.83;;;1.70;;
1949;SDS011;975;48.760;9.152;2023-07-22T04:02:36;3.25;;;1.65;;
1949;SDS011;975;48.760;9.152;2023-07-22T04:05:24;1.98;;;1.45;;
1949;SDS011;975;48.760;9.152;2023-07-22T04:08:12;2.17;;;1.35;;
1949;SDS011;975;48.760;9.152;2023-07-22T04:11:00;3.92;;;1.55;;
1949;SDS011;975;48.760;9.152;2023-07-22T04:13:49;2.95;;;1.52;;
1949;SDS011;975;48.760;9.152;2023-07-22T04:16:37;2.03;;;1.30;;
1949;SDS011;975;48.760;9.152;2023-07-22T04:19:25;2.05;;;1.33;;
1949;SDS011;975;48.760;9.152;2023-07-22T04:22:13;2.00;;;1.52;;
1949;SDS011;975;48.760;9.152;2023-07-22T04:25:01;2.00;;;1.40;;
1949;SDS011;975;48.760;9.152;2023-07-22T04:27:50;2.40;;;1.42;;
1949;SDS011;975;48.760;9.152;2023-07-22T04:30:39;1.92;;;1.15;;
1949;SDS011;975;48.760;9.152;2023-07-22T04:33:27;2.70;;;1.60;;
1949;SDS011;975;48.760;9.152;2023-07-22T04:36:15;2.22;;;1.30;;
1949;SDS011;975;48.760;9.152;2023-07-22T04:39:03;4.70;;;1.65;;
1949;SDS011;975;48.760;9.152;2023-07-22T04:41:52;2.22;;;1.42;;
1949;SDS011;975;48.760;9.152;2023-07-22T04:44:40;2.58;;;1.33;;
1949;SDS011;975;48.760;9.152;2023-07-22T04:47:29;2.58;;;1.50;;
1949;SDS011;975;48.760;9.152;2023-07-22T04:50:17;2.60;;;1.58;;
1949;SDS011;975;48.760;9.152;2023-07-22T04:53:05;3.00;;;1.70;;
1949;SDS011;975;48.760;9.152;2023-07-22T04:55:56;1.55;;;1.25;;
1949;SDS011;975;48.760;9.152;2023-07-22T04:58:44;3.03;;;1.55;;
1949;SDS011;975;48.760;9.152;2023-07-22T05:01:35;2.33;;;1.42;;
1949;SDS011;975;48.760;9.152;2023-07-22T05:04:24;2.33;;;1.30;;
1949;SDS011;975;48.760;9.152;2023-07-22T05:07:12;1.42;;;1.17;;
1949;SDS011;975;48.760;9.152;2023-07-22T05:10:00;2.80;;;1.67;;
1949;SDS011;975;48.760;9.152;2023-07-22T05:12:48;3.67;;;1.52;;
1949;SDS011;975;48.760;9.152;2023-07-22T05:15:36;2.38;;;1.60;;
1949;SDS011;975;48.760;9.152;2023-07-22T05:18:24;3.10;;;1.33;;
1949;SDS011;975;48.760;9.152;2023-07-22T05:21:13;2.67;;;1.50;;
1949;SDS011;975;48.760;9.152;2023-07-22T05:24:01;1.98;;;1.33;;
1949;SDS011;975;48.760;9.152;2023-07-22T05:26:49;5.60;;;1.38;;
1949;SDS011;975;48.760;9.152;2023-07-22T05:29:36;2.30;;;1.42;;
1949;SDS011;975;48.760;9.152;2023-07-22T05:32:24;2.50;;;1.42;;
1949;SDS011;975;48.760;9.152;2023-07-22T05:35:12;1.75;;;1.38;;
1949;SDS011;975;48.760;9.152;2023-07-22T05:38:01;2.15;;;1.67;;
1949;SDS011;975;48.760;9.152;2023-07-22T05:40:51;1.73;;;1.17;;
1949;SDS011;975;48.760;9.152;2023-07-22T05:43:39;2.90;;;1.73;;
1949;SDS011;975;48.760;9.152;2023-07-22T05:46:26;2.35;;;1.42;;
1949;SDS011;975;48.760;9.152;2023-07-22T05:49:17;1.35;;;1.25;;
1949;SDS011;975;48.760;9.152;2023-07-22T05:52:05;2.83;;;1.42;;
1949;SDS011;975;48.760;9.152;2023-07-22T05:54:55;2.13;;;1.50;;
1949;SDS011;975;48.760;9.152;2023-07-22T05:57:42;1.42;;;1.33;;
1949;SDS011;975;48.760;9.152;2023-07-22T06:00:30;2.50;;;1.25;;
1949;SDS011;975;48.760;9.152;2023-07-22T06:03:18;4.10;;;1.60;;
1949;SDS011;975;48.760;9.152;2023-07-22T06:06:06;3.00;;;1.55;;
1949;SDS011;975;48.760;9.152;2023-07-22T06:08:54;2.00;;;1.48;;
1949;SDS011;975;48.760;9.152;2023-07-22T06:11:43;2.15;;;1.35;;
1949;SDS011;975;48.760;9.152;2023-07-22T06:14:31;3.25;;;1.60;;
1949;SDS011;975;48.760;9.152;2023-07-22T06:17:19;4.00;;;1.98;;
1949;SDS011;975;48.760;9.152;2023-07-22T06:20:07;2.72;;;1.20;;
1949;SDS011;975;48.760;9.152;2023-07-22T06:22:55;1.30;;;1.20;;
1949;SDS011;975;48.760;9.152;2023-07-22T06:25:43;2.67;;;1.52;;
1949;SDS011;975;48.760;9.152;2023-07-22T06:28:32;2.90;;;1.40;;
1949;SDS011;975;48.760;9.152;2023-07-22T06:31:20;3.83;;;1.90;;
1949;SDS011;975;48.760;9.152;2023-07-22T06:34:08;2.67;;;1.63;;
1949;SDS011;975;48.760;9.152;2023-07-22T06:36:56;3.63;;;1.77;;
1949;SDS011;975;48.760;9.152;2023-07-22T06:39:44;2.83;;;1.40;;
1949;SDS011;975;48.760;9.152;2023-07-22T06:42:32;2.35;;;1.48;;
1949;SDS011;975;48.760;9.152;2023-07-22T06:45:21;3.38;;;1.52;;
1949;SDS011;975;48.760;9.152;2023-07-22T06:48:09;2.42;;;1.10;;
1949;SDS011;975;48.760;9.152;2023-07-22T06:50:56;2.22;;;1.58;;
1949;SDS011;975;48.760;9.152;2023-07-22T06:53:44;2.47;;;1.55;;
1949;SDS011;975;48.760;9.152;2023-07-22T06:56:32;1.98;;;1.27;;
1949;SDS011;975;48.760;9.152;2023-07-22T06:59:20;4.97;;;1.50;;
1949;SDS011;975;48.760;9.152;2023-07-22T07:02:09;3.85;;;1.58;;
1949;SDS011;975;48.760;9.152;2023-07-22T07:04:57;1.48;;;1.30;;
1949;SDS011;975;48.760;9.152;2023-07-22T07:07:45;3.15;;;1.50;;
1949;SDS011;975;48.760;9.152;2023-07-22T07:10:36;1.75;;;1.20;;
1949;SDS011;975;48.760;9.152;2023-07-22T07:13:24;1.70;;;1.33;;
1949;SDS011;975;48.760;9.152;2023-07-22T07:16:21;4.20;;;1.40;;
1949;SDS011;975;48.760;9.152;2023-07-22T07:19:11;3.85;;;1.33;;
1949;SDS011;975;48.760;9.152;2023-07-22T07:21:59;2.28;;;1.20;;
1949;SDS011;975;48.760;9.152;2023-07-22T07:24:46;2.20;;;1.35;;
1949;SDS011;975;48.760;9.152;2023-07-22T07:27:37;2.60;;;1.23;;
1949;SDS011;975;48.760;9.152;2023-07-22T07:30:25;3.53;;;1.30;;
1949;SDS011;975;48.760;9.152;2023-07-22T07:33:13;2.53;;;1.40;;
1949;SDS011;975;48.760;9.152;2023-07-22T07:36:03;2.17;;;1.15;;
1949;SDS011;975;48.760;9.152;2023-07-22T07:38:51;3.20;;;1.65;;
1949;SDS011;975;48.760;9.152;2023-07-22T07:41:38;2.60;;;1.30;;
1949;SDS011;975;48.760;9.152;2023-07-22T07:44:29;1.40;;;1.10;;
1949;SDS011;975;48.760;9.152;2023-07-22T07:47:17;1.73;;;1.10;;
1949;SDS011;975;48.760;9.152;2023-07-22T07:50:05;3.33;;;1.48;;
1949;SDS011;975;48.760;9.152;2023-07-22T07:52:54;3.03;;;1.02;;
1949;SDS011;975;48.760;9.152;2023-07-22T07:55:42;2.05;;;1.23;;
1949;SDS011;975;48.760;9.152;2023-07-22T07:58:30;2.30;;;1.35;;
1949;SDS011;975;48.760;9.152;2023-07-22T08:01:18;2.30;;;1.15;;
1949;SDS011;975;48.760;9.152;2023-07-22T08:04:06;1.50;;;1.38;;
1949;SDS011;975;48.760;9.152;2023-07-22T08:06:54;2.33;;;1.23;;
1949;SDS011;975;48.760;9.152;2023-07-22T08:09:46;1.30;;;1.10;;
1949;SDS011;975;48.760;9.152;2023-07-22T08:12:35;2.72;;;1.10;;
1949;SDS011;975;48.760;9.152;2023-07-22T08:15:23;1.77;;;1.25;;
1949;SDS011;975;48.760;9.152;2023-07-22T08:18:11;1.98;;;1.50;;
1949;SDS011;975;48.760;9.152;2023-07-22T08:20:59;1.15;;;1.00;;
1949;SDS011;975;48.760;9.152;2023-07-22T08:23:48;1.48;;;1.10;;
1949;SDS011;975;48.760;9.152;2023-07-22T08:26:37;2.10;;;1.00;;
1949;SDS011;975;48.760;9.152;2023-07-22T08:29:26;4.20;;;1.27;;
1949;SDS011;975;48.760;9.152;2023-07-22T08:32:14;2.10;;;1.00;;
1949;SDS011;975;48.760;9.152;2023-07-22T08:35:02;2.30;;;1.27;;
1949;SDS011;975;48.760;9.152;2023-07-22T08:37:53;1.38;;;1.00;;
1949;SDS011;975;48.760;9.152;2023-07-22T08:40:41;2.17;;;1.08;;
1949;SDS011;975;48.760;9.152;2023-07-22T08:43:30;1.48;;;1.20;;
1949;SDS011;975;48.760;9.152;2023-07-22T08:46:21;2.55;;;1.02;;
1949;SDS011;975;48.760;9.152;2023-07-22T08:49:10;1.80;;;1.00;;
1949;SDS011;975;48.760;9.152;2023-07-22T08:51:58;3.85;;;1.10;;
1949;SDS011;975;48.760;9.152;2023-07-22T08:54:47;1.23;;;0.90;;
1949;SDS011;975;48.760;9.152;2023-07-22T08:57:36;2.25;;;1.15;;
1949;SDS011;975;48.760;9.152;2023-07-22T09:00:26;1.98;;;1.10;;
1949;SDS011;975;48.760;9.152;2023-07-22T09:02:53;1.55;;;1.02;;
1949;SDS011;975;48.760;9.152;2023-07-22T09:05:21;1.45;;;1.02;;
1949;SDS011;975;48.760;9.152;2023-07-22T09:07:49;1.50;;;1.27;;
1949;SDS011;975;48.760;9.152;2023-07-22T09:10:16;1.80;;;1.23;;
1949;SDS011;975;48.760;9.152;2023-07-22T09:12:44;1.98;;;1.20;;
1949;SDS011;975;48.760;9.152;2023-07-22T09:15:12;1.13;;;1.00;;
1949;SDS011;975;48.760;9.152;2023-07-22T09:17:42;1.10;;;0.90;;
1949;SDS011;975;48.760;9.152;2023-07-22T09:20:11;1.60;;;1.02;;
1949;SDS011;975;48.760;9.152;2023-07-22T09:22:42;1.95;;;0.90;;
1949;SDS011;975;48.760;9.152;2023-07-22T09:25:12;2.08;;;1.25;;
1949;SDS011;975;48.760;9.152;2023-07-22T09:27:40;2.83;;;1.30;;
1949;SDS011;975;48.760;9.152;2023-07-22T09:32:53;4.28;;;1.30;;
1949;SDS011;975;48.760;9.152;2023-07-22T09:35:21;1.20;;;0.95;;
1949;SDS011;975;48.760;9.152;2023-07-22T09:37:48;1.35;;;1.17;;
1949;SDS011;975;48.760;9.152;2023-07-22T09:40:17;1.17;;;0.90;;
1949;SDS011;975;48.760;9.152;2023-07-22T09:42:45;1.48;;;1.05;;
1949;SDS011;975;48.760;9.152;2023-07-22T09:45:13;1.58;;;0.93;;
1949;SDS011;975;48.760;9.152;2023-07-22T09:47:41;2.22;;;1.25;;
1949;SDS011;975;48.760;9.152;2023-07-22T09:50:15;1.52;;;1.00;;
1949;SDS011;975;48.760;9.152;2023-07-22T09:52:44;2.55;;;1.38;;
1949;SDS011;975;48.760;9.152;2023-07-22T09:55:14;1.30;;;0.90;;
1949;SDS011;975;48.760;9.152;2023-07-22T09:57:43;3.90;;;1.20;;
1949;SDS011;975;48.760;9.152;2023-07-22T10:00:12;1.48;;;0.95;;
1949;SDS011;975;48.760;9.152;2023-07-22T10:02:41;1.35;;;0.82;;
1949;SDS011;975;48.760;9.152;2023-07-22T10:05:14;1.35;;;0.90;;
1949;SDS011;975;48.760;9.152;2023-07-22T10:07:47;2.20;;;1.33;;
1949;SDS011;975;48.760;9.152;2023-07-22T10:10:15;1.55;;;1.10;;
1949;SDS011;975;48.760;9.152;2023-07-22T10:12:43;1.35;;;1.10;;
1949;SDS011;975;48.760;9.152;2023-07-22T10:15:10;1.00;;;1.00;;
1949;SDS011;975;48.760;9.152;2023-07-22T10:17:39;1.85;;;1.08;;
1949;SDS011;975;48.760;9.152;2023-07-22T10:20:07;1.52;;;1.00;;
1949;SDS011;975;48.760;9.152;2023-07-22T10:22:42;1.58;;;1.00;;
1949;SDS011;975;48.760;9.152;2023-07-22T10:25:11;1.58;;;1.00;;
1949;SDS011;975;48.760;9.152;2023-07-22T10:27:39;1.52;;;0.98;;
1949;SDS011;975;48.760;9.152;2023-07-22T10:30:07;1.75;;;1.20;;
1949;SDS011;975;48.760;9.152;2023-07-22T10:32:35;1.10;;;1.00;;
1949;SDS011;975;48.760;9.152;2023-07-22T10:35:04;1.60;;;1.17;;
1949;SDS011;975;48.760;9.152;2023-07-22T10:37:31;1.42;;;0.88;;
1949;SDS011;975;48.760;9.152;2023-07-22T10:40:01;1.30;;;0.93;;
1949;SDS011;975;48.760;9.152;2023-07-22T10:42:29;1.42;;;0.70;;
1949;SDS011;975;48.760;9.152;2023-07-22T10:44:59;2.40;;;1.17;;
1949;SDS011;975;48.760;9.152;2023-07-22T10:47:31;1.60;;;0.80;;
1949;SDS011;975;48.760;9.152;2023-07-22T10:50:05;4.10;;;1.30;;
1949;SDS011;975;48.760;9.152;2023-07-22T10:52:40;1.10;;;0.90;;
1949;SDS011;975;48.760;9.152;2023-07-22T10:55:16;2.67;;;1.30;;
1949;SDS011;975;48.760;9.152;2023-07-22T10:57:47;2.85;;;1.08;;
1949;SDS011;975;48.760;9.152;2023-07-22T11:00:19;1.50;;;1.00;;
1949;SDS011;975;48.760;9.152;2023-07-22T11:02:58;1.85;;;1.17;;
1949;SDS011;975;48.760;9.152;2023-07-22T11:05:52;3.42;;;0.93;;
1949;SDS011;975;48.760;9.152;2023-07-22T11:08:37;1.38;;;1.10;;
1949;SDS011;975;48.760;9.152;2023-07-22T11:11:06;1.27;;;1.10;;
1949;SDS011;975;48.760;9.152;2023-07-22T11:13:37;1.65;;;1.27;;
1949;SDS011;975;48.760;9.152;2023-07-22T11:16:09;1.45;;;1.15;;
1949;SDS011;975;48.760;9.152;2023-07-22T11:18:37;4.22;;;1.10;;
1949;SDS011;975;48.760;9.152;2023-07-22T11:21:09;1.90;;;1.00;;
1949;SDS011;975;48.760;9.152;2023-07-22T11:23:37;1.60;;;1.13;;
1949;SDS011;975;48.760;9.152;2023-07-22T11:26:06;2.50;;;1.10;;
1949;SDS011;975;48.760;9.152;2023-07-22T11:28:33;1.90;;;0.88;;
1949;SDS011;975;48.760;9.152;2023-07-22T11:31:01;1.02;;;0.90;;
1949;SDS011;975;48.760;9.152;2023-07-22T11:33:37;1.17;;;1.02;;
1949;SDS011;975;48.760;9.152;2023-07-22T11:36:05;1.67;;;1.13;;
1949;SDS011;975;48.760;9.152;2023-07-22T11:38:33;1.58;;;1.10;;
1949;SDS011;975;48.760;9.152;2023-07-22T11:41:01;1.58;;;1.10;;
1949;SDS011;975;48.760;9.152;2023-07-22T11:43:30;1.30;;;1.00;;
1949;SDS011;975;48.760;9.152;2023-07-22T11:48:26;0.93;;;0.85;;
1949;SDS011;975;48.760;9.152;2023-07-22T11:50:57;1.65;;;1.10;;
1949;SDS011;975;48.760;9.152;2023-07-22T11:53:25;1.63;;;1.20;;
1949;SDS011;975;48.760;9.152;2023-07-22T11:55:54;1.45;;;1.20;;
1949;SDS011;975;48.760;9.152;2023-07-22T11:58:24;1.00;;;0.90;;
1949;SDS011;975;48.760;9.152;2023-07-22T12:01:03;2.25;;;1.10;;
1949;SDS011;975;48.760;9.152;2023-07-22T12:03:31;1.48;;;1.30;;
1949;SDS011;975;48.760;9.152;2023-07-22T12:06:00;1.10;;;0.82;;
1949;SDS011;975;48.760;9.152;2023-07-22T12:08:28;2.00;;;1.23;;
1949;SDS011;975;48.760;9.152;2023-07-22T12:10:56;1.35;;;1.05;;
1949;SDS011;975;48.760;9.152;2023-07-22T12:13:24;4.00;;;1.02;;
1949;SDS011;975;48.760;9.152;2023-07-22T12:16:03;2.15;;;1.20;;
1949;SDS011;975;48.760;9.152;2023-07-22T12:18:40;1.58;;;1.02;;
1949;SDS011;975;48.760;9.152;2023-07-22T12:21:08;1.48;;;1.05;;
1949;SDS011;975;48.760;9.152;2023-07-22T12:23:36;1.10;;;1.00;;
1949;SDS011;975;48.760;9.152;2023-07-22T12:26:04;2.78;;;1.30;;
1949;SDS011;975;48.760;9.152;2023-07-22T12:28:31;1.88;;;1.10;;
1949;SDS011;975;48.760;9.152;2023-07-22T12:30:59;1.10;;;1.00;;
1949;SDS011;975;48.760;9.152;2023-07-22T12:33:28;2.42;;;1.02;;
1949;SDS011;975;48.760;9.152;2023-07-22T12:35:56;2.38;;;1.17;;
1949;SDS011;975;48.760;9.152;2023-07-22T12:38:24;2.53;;;1.40;;
1949;SDS011;975;48.760;9.152;2023-07-22T12:40:55;6.68;;;1.27;;
1949;SDS011;975;48.760;9.152;2023-07-22T12:43:22;1.52;;;1.10;;
1949;SDS011;975;48.760;9.152;2023-07-22T12:45:50;3.15;;;1.20;;
1949;SDS011;975;48.760;9.152;2023-07-22T12:48:17;1.08;;;0.88;;
1949;SDS011;975;48.760;9.152;2023-07-22T12:50:46;2.45;;;1.40;;
1949;SDS011;975;48.760;9.152;2023-07-22T12:53:14;1.10;;;1.00;;
1949;SDS011;975;48.760;9.152;2023-07-22T12:55:41;1.63;;;1.40;;
1949;SDS011;975;48.760;9.152;2023-07-22T12:58:09;1.88;;;1.20;;
1949;SDS011;975;48.760;9.152;2023-07-22T13:00:37;2.88;;;1.35;;
1949;SDS011;975;48.760;9.152;2023-07-22T13:03:04;2.85;;;1.20;;
1949;SDS011;975;48.760;9.152;2023-07-22T13:05:32;2.47;;;1.45;;
1949;SDS011;975;48.760;9.152;2023-07-22T13:08:04;2.55;;;1.88;;
1949;SDS011;975;48.760;9.152;2023-07-22T13:10:32;2.28;;;1.52;;
1949;SDS011;975;48.760;9.152;2023-07-22T13:13:03;2.10;;;1.30;;
1949;SDS011;975;48.760;9.152;2023-07-22T13:15:30;2.53;;;1.33;;
1949;SDS011;975;48.760;9.152;2023-07-22T13:17:58;2.67;;;1.25;;
1949;SDS011;975;48.760;9.152;2023-07-22T13:20:25;2.13;;;1.50;;
1949;SDS011;975;48.760;9.152;2023-07-22T13:22:53;3.55;;;1.50;;
1949;SDS011;975;48.760;9.152;2023-07-22T13:25:22;2.25;;;1.40;;
1949;SDS011;975;48.760;9.152;2023-07-22T13:27:50;3.53;;;1.48;;
1949;SDS011;975;48.760;9.152;2023-07-22T13:30:17;3.88;;;1.98;;
1949;SDS011;975;48.760;9.152;2023-07-22T13:32:45;3.75;;;1.85;;
1949;SDS011;975;48.760;9.152;2023-07-22T13:35:13;3.25;;;1.60;;
1949;SDS011;975;48.760;9.152;2023-07-22T13:37:41;2.25;;;1.63;;
1949;SDS011;975;48.760;9.152;2023-07-22T13:40:09;2.75;;;1.73;;
1949;SDS011;975;48.760;9.152;2023-07-22T13:42:39;2.42;;;1.50;;
1949;SDS011;975;48.760;9.152;2023-07-22T13:45:07;2.88;;;1.98;;
1949;SDS011;975;48.760;9.152;2023-07-22T13:47:35;1.98;;;1.40;;
1949;SDS011;975;48.760;9.152;2023-07-22T13:50:02;2.38;;;1.60;;
1949;SDS011;975;48.760;9.152;2023-07-22T13:52:30;1.83;;;1.40;;
1949;SDS011;975;48.760;9.152;2023-07-22T13:54:58;2.15;;;1.90;;
1949;SDS011;975;48.760;9.152;2023-07-22T13:57:25;2.58;;;1.70;;
1949;SDS011;975;48.760;9.152;2023-07-22T13:59:57;2.40;;;1.50;;
1949;SDS011;975;48.760;9.152;2023-07-22T14:02:25;1.50;;;1.40;;
1949;SDS011;975;48.760;9.152;2023-07-22T14:04:55;3.10;;;1.83;;
1949;SDS011;975;48.760;9.152;2023-07-22T14:07:23;2.22;;;1.95;;
1949;SDS011;975;48.760;9.152;2023-07-22T14:09:51;2.70;;;1.52;;
1949;SDS011;975;48.760;9.152;2023-07-22T14:12:19;2.65;;;1.80;;
1949;SDS011;975;48.760;9.152;2023-07-22T14:14:46;2.78;;;1.90;;
1949;SDS011;975;48.760;9.152;2023-07-22T14:17:15;4.38;;;1.63;;
1949;SDS011;975;48.760;9.152;2023-07-22T14:19:43;2.50;;;1.58;;
1949;SDS011;975;48.760;9.152;2023-07-22T14:22:10;2.05;;;1.50;;
1949;SDS011;975;48.760;9.152;2023-07-22T14:24:38;4.30;;;1.80;;
1949;SDS011;975;48.760;9.152;2023-07-22T14:27:06;2.45;;;1.67;;
1949;SDS011;975;48.760;9.152;2023-07-22T14:29:34;2.72;;;1.70;;
1949;SDS011;975;48.760;9.152;2023-07-22T14:32:02;1.50;;;1.30;;
1949;SDS011;975;48.760;9.152;2023-07-22T14:34:31;2.95;;;1.70;;
1949;SDS011;975;48.760;9.152;2023-07-22T14:36:58;2.50;;;1.67;;
1949;SDS011;975;48.760;9.152;2023-07-22T14:39:26;2.25;;;1.67;;
1949;SDS011;975;48.760;9.152;2023-07-22T14:41:53;2.25;;;1.50;;
1949;SDS011;975;48.760;9.152;2023-07-22T14:44:21;3.53;;;1.67;;
1949;SDS011;975;48.760;9.152;2023-07-22T14:46:49;3.80;;;2.10;;
1949;SDS011;975;48.760;9.152;2023-07-22T14:49:16;5.40;;;1.92;;
1949;SDS011;975;48.760;9.152;2023-07-22T14:51:45;2.67;;;1.80;;
1949;SDS011;975;48.760;9.152;2023-07-22T14:54:13;2.90;;;1.92;;
1949;SDS011;975;48.760;9.152;2023-07-22T14:56:41;3.22;;;1.80;;
1949;SDS011;975;48.760;9.152;2023-07-22T14:59:08;3.97;;;1.70;;
1949;SDS011;975;48.760;9.152;2023-07-22T15:01:36;5.10;;;1.80;;
1949;SDS011;975;48.760;9.152;2023-07-22T15:04:04;2.65;;;1.80;;
1949;SDS011;975;48.760;9.152;2023-07-22T15:06:32;3.03;;;1.63;;
1949;SDS011;975;48.760;9.152;2023-07-22T15:09:01;4.60;;;1.95;;
1949;SDS011;975;48.760;9.152;2023-07-22T15:11:31;2.85;;;1.55;;
1949;SDS011;975;48.760;9.152;2023-07-22T15:13:59;3.10;;;1.65;;
1949;SDS011;975;48.760;9.152;2023-07-22T15:16:27;3.05;;;1.98;;
1949;SDS011;975;48.760;9.152;2023-07-22T15:18:57;2.90;;;1.65;;
1949;SDS011;975;48.760;9.152;2023-07-22T15:21:25;2.67;;;1.73;;
1949;SDS011;975;48.760;9.152;2023-07-22T15:23:53;3.75;;;1.90;;
1949;SDS011;975;48.760;9.152;2023-07-22T15:26:22;2.17;;;1.70;;
1949;SDS011;975;48.760;9.152;2023-07-22T15:28:50;5.18;;;1.90;;
1949;SDS011;975;48.760;9.152;2023-07-22T15:31:17;2.28;;;1.60;;
1949;SDS011;975;48.760;9.152;2023-07-22T15:33:45;3.50;;;2.20;;
1949;SDS011;975;48.760;9.152;2023-07-22T15:36:13;3.17;;;2.00;;
1949;SDS011;975;48.760;9.152;2023-07-22T15:38:41;2.80;;;1.98;;
1949;SDS011;975;48.760;9.152;2023-07-22T15:41:08;2.35;;;1.77;;
1949;SDS011;975;48.760;9.152;2023-07-22T15:43:37;8.73;;;2.08;;
1949;SDS011;975;48.760;9.152;2023-07-22T15:46:05;3.78;;;1.88;;
1949;SDS011;975;48.760;9.152;2023-07-22T15:48:33;3.53;;;1.90;;
1949;SDS011;975;48.760;9.152;2023-07-22T15:51:00;4.25;;;2.22;;
1949;SDS011;975;48.760;9.152;2023-07-22T15:53:28;3.75;;;2.15;;
1949;SDS011;975;48.760;9.152;2023-07-22T15:55:55;4.63;;;2.28;;
1949;SDS011;975;48.760;9.152;2023-07-22T15:58:23;2.70;;;1.90;;
1949;SDS011;975;48.760;9.152;2023-07-22T16:00:52;4.78;;;1.80;;
1949;SDS011;975;48.760;9.152;2023-07-22T16:03:20;2.47;;;1.70;;
1949;SDS011;975;48.760;9.152;2023-07-22T16:05:47;2.85;;;1.73;;
1949;SDS011;975;48.760;9.152;2023-07-22T16:08:15;2.75;;;1.75;;
1949;SDS011;975;48.760;9.152;2023-07-22T16:10:42;2.90;;;2.00;;
1949;SDS011;975;48.760;9.152;2023-07-22T16:13:10;2.42;;;1.77;;
1949;SDS011;975;48.760;9.152;2023-07-22T16:15:37;3.45;;;1.90;;
1949;SDS011;975;48.760;9.152;2023-07-22T16:18:12;3.78;;;1.90;;
1949;SDS011;975;48.760;9.152;2023-07-22T16:20:40;2.90;;;1.55;;
1949;SDS011;975;48.760;9.152;2023-07-22T16:23:08;3.88;;;1.88;;
1949;SDS011;975;48.760;9.152;2023-07-22T16:25:35;3.47;;;2.30;;
1949;SDS011;975;48.760;9.152;2023-07-22T16:28:03;4.90;;;2.40;;
1949;SDS011;975;48.760;9.152;2023-07-22T16:30:31;3.10;;;1.90;;
1949;SDS011;975;48.760;9.152;2023-07-22T16:32:58;4.88;;;2.10;;
1949;SDS011;975;48.760;9.152;2023-07-22T16:35:27;3.28;;;2.05;;
1949;SDS011;975;48.760;9.152;2023-07-22T16:37:56;3.85;;;2.17;;
1949;SDS011;975;48.760;9.152;2023-07-22T16:40:24;5.30;;;1.75;;
1949;SDS011;975;48.760;9.152;2023-07-22T16:42:52;3.70;;;2.25;;
1949;SDS011;975;48.760;9.152;2023-07-22T16:45:20;5.50;;;2.83;;
1949;SDS011;975;48.760;9.152;2023-07-22T16:47:48;2.60;;;1.90;;